Decoded Metar for YKRY ( in ) (IATA:) | Meteo·Mobile Aviation Weather
aviador You're here:

YKRY Decoded Metar

in
Report Time2018-09-18 21:00:00
UTC Time2018-09-18 21:33:58
Flight Rules vfr VFR
WindCalm
Visibility9999 m
Phenomena:N/A
Clouds:N/A
Expected CloudBase > 400 ft AGL from Temp-Dew spread
CeilingNone
Temp09°C
Dew Point08°C (94% RH)
AAT8.6°C
QNH1020 hPa
Raw Report
METAR YKRY 182100Z AUTO 00000KT 9999 // NCD 09/08 Q1020=

Extra information for YKRY:More info

Social comments